Time;durP1;ratioP1;P1;durP2;ratioP2;P2;SDS_P1;SDS_P2;PMS_P1;PMS_P2;Temp;Humidity;BMP_temperature;BMP_pressure;BME280_temperature;BME280_humidity;BME280_pressure;Samples;Min_cycle;Max_cycle;Signal;HPM_P1;HPM_P2
2022/05/17 00:02:25;;;;;;;3.75;1.35;;;;;;;;;;4987783;28;20139;-64
2022/05/17 00:04:51;;;;;;;4.93;1.50;;;;;;;;;;4978100;28;20085;-62
2022/05/17 00:07:19;;;;;;;3.30;1.42;;;;;;;;;;5008343;28;20093;-67
2022/05/17 00:09:46;;;;;;;6.03;1.23;;;;;;;;;;4963611;28;20093;-67
2022/05/17 00:12:13;;;;;;;4.53;1.23;;;;;;;;;;5014802;28;20057;-67
2022/05/17 00:14:39;;;;;;;3.40;1.58;;;;;;;;;;4999744;28;20143;-64
2022/05/17 00:17:06;;;;;;;4.53;1.60;;;;;;;;;;4987647;28;20046;-68
2022/05/17 00:19:32;;;;;;;5.10;1.67;;;;;;;;;;4972510;28;20049;-66
2022/05/17 00:21:59;;;;;;;3.38;1.17;;;;;;;;;;4966358;28;20062;-66
2022/05/17 00:24:27;;;;;;;2.20;1.10;;;;;;;;;;4988136;28;20117;-68
2022/05/17 00:26:53;;;;;;;6.03;1.33;;;;;;;;;;4983115;28;20046;-65
2022/05/17 00:29:21;;;;;;;2.92;1.25;;;;;;;;;;4987777;28;20065;-65
2022/05/17 00:31:47;;;;;;;7.18;1.30;;;;;;;;;;4983665;28;20062;-66
2022/05/17 00:34:14;;;;;;;6.10;1.73;;;;;;;;;;5002925;28;20054;-65
2022/05/17 00:36:41;;;;;;;4.80;1.20;;;;;;;;;;5004452;28;20280;-62
2022/05/17 00:39:07;;;;;;;5.43;1.33;;;;;;;;;;5001298;28;20046;-66
2022/05/17 00:41:35;;;;;;;9.50;1.77;;;;;;;;;;4987856;28;20174;-63
2022/05/17 00:46:49;;;;;;;3.03;1.30;;;;;;;;;;4986648;28;20116;-67
2022/05/17 00:49:21;;;;;;;6.90;1.38;;;;;;;;;;5002503;28;20085;-67
2022/05/17 00:51:47;;;;;;;4.50;1.52;;;;;;;;;;4976125;28;20061;-67
2022/05/17 00:54:16;;;;;;;3.83;1.50;;;;;;;;;;4983814;28;20042;-65
2022/05/17 00:56:45;;;;;;;5.28;1.38;;;;;;;;;;4984500;28;20046;-64
2022/05/17 00:59:13;;;;;;;7.80;1.88;;;;;;;;;;4986624;28;20074;-65
2022/05/17 01:01:39;;;;;;;4.55;1.98;;;;;;;;;;4968720;28;20078;-63
2022/05/17 01:04:08;;;;;;;5.25;1.65;;;;;;;;;;4987525;28;20054;-66
2022/05/17 01:06:36;;;;;;;2.80;1.17;;;;;;;;;;4964268;28;20069;-65
2022/05/17 01:09:04;;;;;;;3.42;1.20;;;;;;;;;;5006360;28;20138;-65
2022/05/17 01:11:31;;;;;;;2.65;1.05;;;;;;;;;;4992925;28;20113;-68
2022/05/17 01:16:43;;;;;;;3.88;1.58;;;;;;;;;;4983458;28;20058;-66
2022/05/17 01:19:10;;;;;;;5.80;2.05;;;;;;;;;;4987314;28;20058;-64
2022/05/17 01:21:38;;;;;;;5.70;1.20;;;;;;;;;;4985237;28;20050;-63
2022/05/17 01:24:05;;;;;;;4.25;1.48;;;;;;;;;;4990880;28;20120;-66
2022/05/17 01:26:34;;;;;;;3.92;1.15;;;;;;;;;;5006566;28;20045;-65
2022/05/17 01:29:01;;;;;;;;;;;;;;;;;;4992005;28;20050;-67
2022/05/17 01:31:30;;;;;;;6.80;1.88;;;;;;;;;;5003302;28;19929;-68
2022/05/17 01:33:56;;;;;;;5.38;1.45;;;;;;;;;;4976431;28;20065;-67
2022/05/17 01:36:23;;;;;;;3.65;1.30;;;;;;;;;;4971178;28;20148;-66
2022/05/17 01:38:51;;;;;;;4.97;1.30;;;;;;;;;;4981649;28;20141;-64
2022/05/17 01:41:18;;;;;;;1.83;1.15;;;;;;;;;;4985882;28;20054;-67
2022/05/17 01:43:45;;;;;;;7.63;2.03;;;;;;;;;;5003723;28;20064;-64
2022/05/17 01:46:11;;;;;;;4.45;1.45;;;;;;;;;;4998152;28;20058;-66
2022/05/17 01:48:38;;;;;;;7.00;2.65;;;;;;;;;;4987965;28;20480;-65
2022/05/17 01:51:06;;;;;;;2.80;1.40;;;;;;;;;;4983189;28;20546;-67
2022/05/17 01:53:32;;;;;;;6.28;2.03;;;;;;;;;;4988651;28;20054;-67
2022/05/17 01:56:01;;;;;;;2.97;1.20;;;;;;;;;;4982110;28;20058;-67
2022/05/17 01:58:29;;;;;;;7.97;2.50;;;;;;;;;;4987298;28;20051;-65
2022/05/17 02:00:55;;;;;;;4.60;1.40;;;;;;;;;;4996125;28;20271;-64
2022/05/17 02:03:22;;;;;;;5.07;1.27;;;;;;;;;;4998666;28;20368;-64
2022/05/17 02:05:48;;;;;;;3.40;1.17;;;;;;;;;;4986977;28;20050;-66
2022/05/17 02:08:15;;;;;;;3.85;1.40;;;;;;;;;;4976748;28;20054;-66
2022/05/17 02:10:41;;;;;;;3.80;1.52;;;;;;;;;;4985826;28;20054;-65
2022/05/17 02:13:10;;;;;;;6.25;2.03;;;;;;;;;;4970746;28;20058;-63
2022/05/17 02:15:37;;;;;;;4.88;1.60;;;;;;;;;;4985847;28;20085;-65
2022/05/17 02:18:04;;;;;;;3.40;1.45;;;;;;;;;;4963993;28;20062;-67
2022/05/17 02:20:31;;;;;;;4.05;1.67;;;;;;;;;;4985974;28;20054;-69
2022/05/17 02:23:00;;;;;;;3.17;1.35;;;;;;;;;;4983195;28;20078;-68
2022/05/17 02:25:26;;;;;;;4.38;1.73;;;;;;;;;;4979803;28;20128;-62
2022/05/17 02:27:53;;;;;;;4.30;1.52;;;;;;;;;;4984381;28;20121;-68
2022/05/17 02:30:21;;;;;;;3.25;1.20;;;;;;;;;;4976097;28;20077;-65
2022/05/17 02:32:49;;;;;;;2.30;1.20;;;;;;;;;;4985538;28;20051;-64
2022/05/17 02:35:16;;;;;;;3.00;1.33;;;;;;;;;;4977181;28;20113;-66
2022/05/17 02:37:43;;;;;;;4.05;1.27;;;;;;;;;;4985476;28;20145;-65
2022/05/17 02:40:09;;;;;;;4.90;1.50;;;;;;;;;;4978978;28;20058;-67
2022/05/17 02:42:36;;;;;;;3.67;1.20;;;;;;;;;;4988046;28;20377;-68
2022/05/17 02:45:03;;;;;;;4.55;1.63;;;;;;;;;;4985333;28;20136;-64
2022/05/17 02:47:31;;;;;;;3.92;1.95;;;;;;;;;;4977378;28;20103;-67
2022/05/17 02:49:58;;;;;;;5.43;1.70;;;;;;;;;;4980887;28;20042;-65
2022/05/17 02:52:24;;;;;;;2.17;1.25;;;;;;;;;;4968763;28;20065;-64
2022/05/17 02:54:51;;;;;;;5.55;1.60;;;;;;;;;;4987854;28;20054;-66
2022/05/17 02:57:18;;;;;;;2.95;1.17;;;;;;;;;;4981433;28;20127;-67
2022/05/17 02:59:44;;;;;;;7.88;2.15;;;;;;;;;;4987067;28;20068;-65
2022/05/17 03:02:11;;;;;;;6.53;1.80;;;;;;;;;;4988248;28;20061;-68
2022/05/17 03:04:39;;;;;;;2.28;1.30;;;;;;;;;;4957867;28;20046;-67
2022/05/17 03:07:05;;;;;;;7.60;1.83;;;;;;;;;;4988011;28;20054;-68
2022/05/17 03:09:32;;;;;;;3.42;1.42;;;;;;;;;;4979510;28;20077;-66
2022/05/17 03:11:58;;;;;;;3.67;1.48;;;;;;;;;;4993201;28;20042;-67
2022/05/17 03:14:25;;;;;;;9.88;2.15;;;;;;;;;;4964670;28;20078;-67
2022/05/17 03:16:51;;;;;;;5.00;1.70;;;;;;;;;;4972730;28;20073;-66
2022/05/17 03:19:18;;;;;;;2.83;1.38;;;;;;;;;;4964781;28;20066;-66
2022/05/17 03:21:47;;;;;;;4.90;1.63;;;;;;;;;;4989438;28;20093;-66
2022/05/17 03:24:14;;;;;;;4.20;1.48;;;;;;;;;;4989122;28;20122;-64
2022/05/17 03:26:41;;;;;;;3.03;1.58;;;;;;;;;;4967251;28;20081;-68
2022/05/17 03:29:08;;;;;;;6.60;1.42;;;;;;;;;;4990035;28;20058;-66
2022/05/17 03:31:36;;;;;;;3.80;1.50;;;;;;;;;;4965785;28;20078;-67
2022/05/17 03:34:02;;;;;;;4.80;1.58;;;;;;;;;;4989714;28;20149;-66
2022/05/17 03:36:29;;;;;;;2.28;1.20;;;;;;;;;;4964228;28;20058;-66
2022/05/17 03:38:57;;;;;;;4.97;1.98;;;;;;;;;;4972525;28;20058;-67
2022/05/17 03:41:24;;;;;;;5.20;1.80;;;;;;;;;;4982880;28;20105;-67
2022/05/17 03:43:50;;;;;;;3.28;1.40;;;;;;;;;;4985022;28;20050;-66
2022/05/17 03:46:17;;;;;;;4.38;1.23;;;;;;;;;;4992812;28;20054;-66
2022/05/17 03:48:44;;;;;;;5.40;1.67;;;;;;;;;;4987077;28;20054;-65
2022/05/17 03:51:11;;;;;;;7.32;1.98;;;;;;;;;;4971735;28;20078;-66
2022/05/17 03:53:38;;;;;;;8.00;1.65;;;;;;;;;;4983252;28;20058;-67
2022/05/17 03:56:06;;;;;;;1.90;1.17;;;;;;;;;;4971699;28;20066;-67
2022/05/17 03:58:33;;;;;;;5.97;2.03;;;;;;;;;;4979406;28;20156;-66
2022/05/17 04:00:59;;;;;;;8.25;2.90;;;;;;;;;;4999800;28;20138;-66
2022/05/17 04:03:26;;;;;;;3.88;1.63;;;;;;;;;;4995592;28;20112;-66
2022/05/17 04:05:52;;;;;;;4.05;1.80;;;;;;;;;;4978911;28;20058;-66
2022/05/17 04:08:19;;;;;;;4.55;1.98;;;;;;;;;;4970986;28;20055;-63
2022/05/17 04:10:45;;;;;;;9.45;2.20;;;;;;;;;;4994649;28;20194;-67
2022/05/17 04:13:14;;;;;;;7.68;2.50;;;;;;;;;;4970917;28;20063;-64
2022/05/17 04:15:41;;;;;;;3.42;1.40;;;;;;;;;;4978655;28;20082;-67
2022/05/17 04:18:08;;;;;;;3.38;1.55;;;;;;;;;;4970818;28;20050;-66
2022/05/17 04:20:35;;;;;;;10.25;2.33;;;;;;;;;;4981293;28;20054;-66
2022/05/17 04:23:02;;;;;;;4.97;1.52;;;;;;;;;;4986435;28;20093;-66
2022/05/17 04:25:28;;;;;;;3.58;1.50;;;;;;;;;;4971016;28;20093;-63
2022/05/17 04:27:55;;;;;;;3.67;1.30;;;;;;;;;;4965975;28;20109;-66
2022/05/17 04:30:23;;;;;;;6.07;1.90;;;;;;;;;;4987385;28;20652;-62
2022/05/17 04:32:50;;;;;;;4.68;2.13;;;;;;;;;;4981980;28;20132;-62
2022/05/17 04:35:17;;;;;;;4.22;1.88;;;;;;;;;;4986838;28;20050;-67
2022/05/17 04:37:44;;;;;;;7.88;2.45;;;;;;;;;;4980695;28;20054;-67
2022/05/17 04:40:13;;;;;;;6.53;1.90;;;;;;;;;;4985943;28;20050;-63
2022/05/17 04:42:40;;;;;;;5.30;2.10;;;;;;;;;;4982557;28;20149;-67
2022/05/17 04:45:08;;;;;;;3.63;1.70;;;;;;;;;;4986537;28;20074;-65
2022/05/17 04:47:38;;;;;;;6.57;1.83;;;;;;;;;;4981117;28;20042;-62
2022/05/17 04:50:06;;;;;;;7.28;2.72;;;;;;;;;;4969793;28;20043;-64
2022/05/17 04:52:32;;;;;;;7.85;1.90;;;;;;;;;;4964261;28;20058;-65
2022/05/17 04:54:59;;;;;;;6.80;2.78;;;;;;;;;;4986806;28;20141;-67
2022/05/17 04:57:26;;;;;;;6.78;2.80;;;;;;;;;;4997489;28;20050;-65
2022/05/17 04:59:52;;;;;;;9.75;3.45;;;;;;;;;;4987089;28;20058;-65
2022/05/17 05:02:19;;;;;;;3.58;1.58;;;;;;;;;;4965905;28;20624;-67
2022/05/17 05:04:47;;;;;;;7.10;2.30;;;;;;;;;;4987773;28;20077;-67
2022/05/17 05:07:13;;;;;;;10.55;2.10;;;;;;;;;;4981785;28;20097;-67
2022/05/17 05:09:40;;;;;;;3.33;1.67;;;;;;;;;;4982244;28;20058;-66
2022/05/17 05:12:07;;;;;;;5.03;1.80;;;;;;;;;;4983237;28;20062;-67
2022/05/17 05:14:33;;;;;;;6.93;2.38;;;;;;;;;;4959081;28;20051;-66
2022/05/17 05:17:00;;;;;;;8.77;2.92;;;;;;;;;;4967100;28;20058;-66
2022/05/17 05:19:26;;;;;;;8.55;3.25;;;;;;;;;;4944934;28;20051;-67
2022/05/17 05:21:54;;;;;;;4.03;1.70;;;;;;;;;;4967306;28;20047;-66
2022/05/17 05:24:21;;;;;;;6.57;1.83;;;;;;;;;;4943882;28;20126;-64
2022/05/17 05:26:47;;;;;;;9.65;3.28;;;;;;;;;;4982248;28;20051;-66
2022/05/17 05:29:14;;;;;;;11.95;3.05;;;;;;;;;;4961297;28;20097;-67
2022/05/17 05:31:41;;;;;;;7.25;2.95;;;;;;;;;;4966082;28;20046;-66
2022/05/17 05:34:07;;;;;;;10.52;3.85;;;;;;;;;;4961611;28;20055;-67
2022/05/17 05:36:34;;;;;;;16.65;7.97;;;;;;;;;;4966245;28;20061;-65
2022/05/17 05:39:02;;;;;;;18.33;6.22;;;;;;;;;;4960001;28;20054;-65
2022/05/17 05:41:28;;;;;;;9.38;3.55;;;;;;;;;;4966016;28;20062;-66
2022/05/17 05:43:55;;;;;;;9.73;3.58;;;;;;;;;;4961085;28;20054;-63
2022/05/17 05:46:22;;;;;;;10.27;3.75;;;;;;;;;;4952745;28;20059;-64
2022/05/17 05:48:51;;;;;;;10.65;3.67;;;;;;;;;;4964325;28;20250;-65
2022/05/17 05:51:18;;;;;;;7.43;3.85;;;;;;;;;;4979654;28;20058;-62
2022/05/17 05:53:45;;;;;;;11.70;4.00;;;;;;;;;;4987916;28;20137;-66
2022/05/17 05:56:13;;;;;;;5.80;2.15;;;;;;;;;;4963986;28;20055;-66
2022/05/17 05:58:42;;;;;;;8.35;3.15;;;;;;;;;;4967280;28;20083;-63
2022/05/17 06:01:09;;;;;;;10.75;3.38;;;;;;;;;;4973257;28;20057;-62
2022/05/17 06:03:36;;;;;;;9.27;3.63;;;;;;;;;;4980342;28;20050;-63
2022/05/17 06:06:03;;;;;;;15.48;3.80;;;;;;;;;;4950507;28;20074;-62
2022/05/17 06:08:31;;;;;;;9.40;3.80;;;;;;;;;;4986962;28;20054;-62
2022/05/17 06:10:59;;;;;;;9.77;3.45;;;;;;;;;;4983691;28;20125;-65
2022/05/17 06:13:26;;;;;;;10.50;3.50;;;;;;;;;;4987071;28;20050;-66
2022/05/17 06:15:53;;;;;;;9.77;3.67;;;;;;;;;;4980948;28;20116;-66
2022/05/17 06:18:20;;;;;;;9.38;3.70;;;;;;;;;;4986815;28;20058;-63
2022/05/17 06:20:49;;;;;;;12.25;4.50;;;;;;;;;;4987166;28;20084;-67
2022/05/17 06:23:15;;;;;;;12.40;4.75;;;;;;;;;;4966683;28;20120;-66
2022/05/17 06:25:42;;;;;;;10.88;3.63;;;;;;;;;;4978440;28;20050;-67
2022/05/17 06:28:08;;;;;;;10.50;3.50;;;;;;;;;;4984712;28;20070;-68
2022/05/17 06:30:36;;;;;;;11.65;4.05;;;;;;;;;;4991062;28;20093;-66
2022/05/17 06:33:03;;;;;;;11.00;3.67;;;;;;;;;;4984733;28;20080;-64
2022/05/17 06:35:29;;;;;;;9.48;2.95;;;;;;;;;;4991096;28;20058;-67
2022/05/17 06:37:57;;;;;;;12.63;3.90;;;;;;;;;;4987645;28;20058;-61
2022/05/17 06:40:23;;;;;;;14.52;3.85;;;;;;;;;;4989163;28;20062;-66
2022/05/17 06:42:50;;;;;;;15.38;5.47;;;;;;;;;;4976005;28;20154;-70
2022/05/17 06:45:16;;;;;;;13.18;4.60;;;;;;;;;;4968232;28;20050;-65
2022/05/17 06:47:46;;;;;;;11.50;3.90;;;;;;;;;;4989336;28;20054;-66
2022/05/17 06:50:13;;;;;;;10.25;3.20;;;;;;;;;;4974713;28;20054;-68
2022/05/17 06:52:40;;;;;;;9.38;3.30;;;;;;;;;;4981982;28;20121;-68
2022/05/17 06:55:07;;;;;;;10.53;3.40;;;;;;;;;;4982725;28;20070;-67
2022/05/17 06:57:34;;;;;;;14.85;3.45;;;;;;;;;;4991300;28;20068;-67
2022/05/17 07:00:01;;;;;;;3.95;1.70;;;;;;;;;;5009362;28;20054;-66
2022/05/17 07:02:28;;;;;;;2.55;1.35;;;;;;;;;;5003292;28;20057;-66
2022/05/17 07:04:56;;;;;;;11.32;2.85;;;;;;;;;;4978884;28;20137;-67
2022/05/17 07:07:23;;;;;;;8.65;2.97;;;;;;;;;;4984601;28;20117;-67
2022/05/17 07:15:10;;;;;;;12.68;5.30;;;;;;;;;;4976886;28;20050;-63
2022/05/17 07:17:37;;;;;;;14.38;5.78;;;;;;;;;;4982835;28;20054;-67
2022/05/17 07:20:06;;;;;;;12.93;4.95;;;;;;;;;;4989319;28;20058;-63
2022/05/17 07:22:33;;;;;;;9.98;4.13;;;;;;;;;;4984703;28;20198;-67
2022/05/17 07:24:59;;;;;;;5.10;2.20;;;;;;;;;;4987681;28;20108;-64
2022/05/17 07:27:26;;;;;;;12.68;3.67;;;;;;;;;;4989267;28;20050;-66
2022/05/17 07:29:52;;;;;;;12.38;4.10;;;;;;;;;;4982694;28;20074;-67
2022/05/17 07:32:19;;;;;;;9.88;3.65;;;;;;;;;;4988897;28;20061;-66
2022/05/17 07:34:47;;;;;;;11.48;3.47;;;;;;;;;;4983246;28;20101;-68
2022/05/17 07:37:15;;;;;;;15.88;3.03;;;;;;;;;;4988438;28;20100;-67
2022/05/17 07:39:43;;;;;;;9.80;2.78;;;;;;;;;;4983264;28;20146;-67
2022/05/17 07:42:11;;;;;;;10.38;2.33;;;;;;;;;;4989522;28;20054;-64
2022/05/17 07:44:37;;;;;;;6.93;2.30;;;;;;;;;;4996216;28;20056;-67
2022/05/17 07:47:04;;;;;;;6.85;2.08;;;;;;;;;;4985165;28;20094;-66
2022/05/17 07:49:32;;;;;;;7.13;2.10;;;;;;;;;;4988469;28;20134;-67
2022/05/17 07:51:58;;;;;;;4.73;1.30;;;;;;;;;;4976330;28;20081;-65
2022/05/17 07:54:26;;;;;;;10.70;1.50;;;;;;;;;;5004814;28;20065;-66
2022/05/17 07:56:53;;;;;;;4.60;1.40;;;;;;;;;;4983790;28;20112;-66
2022/05/17 07:59:20;;;;;;;11.50;1.55;;;;;;;;;;4988906;28;20054;-66
2022/05/17 08:01:46;;;;;;;5.10;1.27;;;;;;;;;;4984654;28;20196;-65
2022/05/17 08:04:13;;;;;;;11.43;1.95;;;;;;;;;;4985920;28;20057;-65
2022/05/17 08:06:39;;;;;;;9.50;1.50;;;;;;;;;;4989145;28;20077;-63
2022/05/17 08:09:06;;;;;;;4.60;1.60;;;;;;;;;;4985233;28;20044;-67
2022/05/17 08:11:34;;;;;;;9.07;1.45;;;;;;;;;;4989185;28;20112;-67
2022/05/17 08:14:01;;;;;;;6.38;1.60;;;;;;;;;;4982736;28;20050;-63
2022/05/17 08:16:27;;;;;;;4.35;1.30;;;;;;;;;;4988879;28;20088;-68
2022/05/17 08:18:54;;;;;;;4.47;1.20;;;;;;;;;;4982002;28;20138;-67
2022/05/17 08:21:20;;;;;;;4.82;1.20;;;;;;;;;;4988657;28;20050;-68
2022/05/17 08:23:47;;;;;;;5.90;1.40;;;;;;;;;;4988162;28;20061;-66
2022/05/17 08:28:58;;;;;;;5.05;1.65;;;;;;;;;;4988100;28;20070;-66
2022/05/17 08:31:25;;;;;;;6.72;1.52;;;;;;;;;;4982894;28;20153;-64
2022/05/17 08:33:51;;;;;;;6.63;1.48;;;;;;;;;;4988891;28;20134;-66
2022/05/17 08:36:17;;;;;;;3.63;1.00;;;;;;;;;;4978709;28;20141;-66
2022/05/17 08:38:45;;;;;;;4.45;1.33;;;;;;;;;;5004421;28;20129;-64
2022/05/17 08:41:14;;;;;;;9.27;2.40;;;;;;;;;;4982631;28;20062;-64
2022/05/17 08:43:48;;;;;;;3.17;1.35;;;;;;;;;;4988442;28;20132;-65
2022/05/17 08:46:25;;;;;;;7.93;2.35;;;;;;;;;;4966626;28;20085;-66
2022/05/17 08:48:53;;;;;;;9.52;2.97;;;;;;;;;;4987769;28;20128;-65
2022/05/17 08:51:26;;;;;;;5.60;1.65;;;;;;;;;;4998817;28;20082;-66
2022/05/17 08:53:53;;;;;;;10.18;2.97;;;;;;;;;;4988079;28;20153;-65
2022/05/17 08:56:20;;;;;;;3.42;1.60;;;;;;;;;;4986657;28;20058;-66
2022/05/17 08:58:48;;;;;;;4.82;1.80;;;;;;;;;;4987465;28;20128;-66
2022/05/17 09:01:19;;;;;;;7.75;1.65;;;;;;;;;;4995847;28;20051;-67
2022/05/17 09:03:49;;;;;;;5.60;1.98;;;;;;;;;;4987720;28;20100;-67
2022/05/17 09:06:21;;;;;;;7.00;2.03;;;;;;;;;;4981573;28;20105;-64
2022/05/17 09:08:50;;;;;;;7.45;2.30;;;;;;;;;;4971392;28;20105;-66
2022/05/17 09:11:20;;;;;;;9.02;2.28;;;;;;;;;;4982009;28;20046;-65
2022/05/17 09:13:49;;;;;;;16.73;3.30;;;;;;;;;;4987457;28;20062;-65
2022/05/17 09:16:15;;;;;;;3.45;1.55;;;;;;;;;;4975125;28;20062;-66
2022/05/17 09:18:46;;;;;;;4.25;1.67;;;;;;;;;;4979407;28;20066;-65
2022/05/17 09:21:29;;;;;;;5.78;1.88;;;;;;;;;;4959888;28;20054;-67
2022/05/17 09:23:57;;;;;;;4.72;1.50;;;;;;;;;;4987266;28;20054;-67
2022/05/17 09:26:24;;;;;;;5.65;1.75;;;;;;;;;;4980999;28;20050;-63
2022/05/17 09:28:52;;;;;;;4.35;1.90;;;;;;;;;;4987286;28;20050;-67
2022/05/17 09:31:27;;;;;;;6.18;1.90;;;;;;;;;;4987219;28;20088;-66
2022/05/17 09:33:54;;;;;;;9.43;2.53;;;;;;;;;;4963254;28;20128;-66
2022/05/17 09:36:22;;;;;;;7.93;2.60;;;;;;;;;;4967776;28;20047;-65
2022/05/17 09:38:51;;;;;;;8.63;2.08;;;;;;;;;;4962014;28;20055;-65
2022/05/17 09:41:20;;;;;;;10.10;2.58;;;;;;;;;;4968521;28;20061;-63
2022/05/17 09:43:51;;;;;;;8.65;2.75;;;;;;;;;;4954889;28;20074;-66
2022/05/17 09:46:18;;;;;;;8.52;2.53;;;;;;;;;;4964497;28;20133;-67
2022/05/17 09:54:33;;;;;;;6.72;1.95;;;;;;;;;;4962502;28;20065;-66
2022/05/17 09:57:12;;;;;;;5.20;1.80;;;;;;;;;;4967946;28;20105;-67
2022/05/17 09:59:39;;;;;;;12.75;2.50;;;;;;;;;;4980068;28;20141;-68
2022/05/17 10:02:25;;;;;;;5.50;2.22;;;;;;;;;;4990520;28;20063;-66
2022/05/17 10:04:52;;;;;;;5.18;1.80;;;;;;;;;;4984891;28;20065;-64
2022/05/17 10:07:20;;;;;;;7.40;2.72;;;;;;;;;;4991102;28;20065;-66
2022/05/17 10:09:48;;;;;;;8.73;2.00;;;;;;;;;;4954879;28;20150;-64
2022/05/17 10:12:20;;;;;;;7.53;1.73;;;;;;;;;;4955998;28;20047;-65
2022/05/17 10:14:48;;;;;;;8.15;2.15;;;;;;;;;;4977116;28;20054;-65
2022/05/17 10:17:16;;;;;;;9.07;2.22;;;;;;;;;;4990968;28;20050;-66
2022/05/17 10:19:45;;;;;;;4.18;1.55;;;;;;;;;;4984130;28;20076;-65
2022/05/17 10:22:23;;;;;;;6.50;1.83;;;;;;;;;;4990951;28;20054;-66
2022/05/17 10:24:53;;;;;;;9.70;2.35;;;;;;;;;;4957564;28;20082;-65
2022/05/17 10:27:23;;;;;;;10.65;2.30;;;;;;;;;;4955375;28;20066;-66
2022/05/17 10:29:52;;;;;;;11.15;2.45;;;;;;;;;;4950745;28;20055;-66
2022/05/17 10:32:19;;;;;;;;;;;;;;;;;;4971045;28;20052;-66
2022/05/17 10:34:49;;;;;;;6.75;2.38;;;;;;;;;;4950145;28;20052;-67
2022/05/17 10:37:18;;;;;;;6.70;1.95;;;;;;;;;;4971043;28;20139;-66
2022/05/17 10:39:47;;;;;;;6.78;2.17;;;;;;;;;;4965253;28;20142;-66
2022/05/17 10:42:15;;;;;;;12.52;2.42;;;;;;;;;;4955043;28;20090;-66
2022/05/17 10:44:43;;;;;;;9.27;2.28;;;;;;;;;;4965941;28;20090;-66
2022/05/17 10:47:14;;;;;;;6.70;1.90;;;;;;;;;;4985804;28;20046;-64
2022/05/17 10:49:52;;;;;;;5.88;2.03;;;;;;;;;;4983746;28;20309;-62
2022/05/17 10:52:23;;;;;;;6.88;1.95;;;;;;;;;;4971387;28;20042;-66
2022/05/17 10:54:57;;;;;;;8.13;2.58;;;;;;;;;;4966557;28;20070;-64
2022/05/17 10:57:29;;;;;;;6.45;1.77;;;;;;;;;;4970862;28;20109;-66
2022/05/17 11:00:00;;;;;;;11.68;2.78;;;;;;;;;;4970739;28;20047;-63
2022/05/17 11:02:34;;;;;;;7.45;2.42;;;;;;;;;;4970300;28;20073;-67
2022/05/17 11:05:15;;;;;;;8.70;2.55;;;;;;;;;;4962412;28;20077;-63
2022/05/17 11:07:47;;;;;;;8.65;2.65;;;;;;;;;;4983333;28;20066;-65
2022/05/17 11:10:17;;;;;;;6.32;1.98;;;;;;;;;;4990194;28;20061;-64
2022/05/17 11:12:48;;;;;;;8.82;1.77;;;;;;;;;;4964812;28;20054;-65
2022/05/17 11:15:17;;;;;;;7.22;2.00;;;;;;;;;;4990106;28;20070;-63
2022/05/17 11:17:50;;;;;;;7.00;2.10;;;;;;;;;;4984234;28;20050;-64
2022/05/17 11:20:19;;;;;;;7.22;2.38;;;;;;;;;;4989815;28;20054;-65
2022/05/17 11:22:48;;;;;;;6.05;2.20;;;;;;;;;;5002527;28;20054;-63
2022/05/17 11:25:23;;;;;;;8.35;2.40;;;;;;;;;;5005769;28;20058;-66
2022/05/17 11:27:59;;;;;;;13.38;2.70;;;;;;;;;;4999962;28;20074;-64
2022/05/17 11:30:28;;;;;;;6.57;2.20;;;;;;;;;;4989180;28;20058;-65
2022/05/17 11:33:09;;;;;;;6.95;1.92;;;;;;;;;;4970737;28;20058;-63
2022/05/17 11:35:37;;;;;;;8.82;2.30;;;;;;;;;;4973538;28;20064;-63
2022/05/17 11:38:06;;;;;;;9.65;2.42;;;;;;;;;;4975937;28;20050;-67
2022/05/17 11:40:47;;;;;;;7.70;2.88;;;;;;;;;;4969610;28;20054;-64
2022/05/17 11:46:04;;;;;;;5.68;2.35;;;;;;;;;;4989815;28;20058;-64
2022/05/17 11:48:44;;;;;;;12.65;3.35;;;;;;;;;;4989463;28;20050;-66
2022/05/17 11:51:10;;;;;;;7.03;2.40;;;;;;;;;;4983896;28;20054;-62
2022/05/17 11:53:45;;;;;;;8.35;2.83;;;;;;;;;;4972723;28;20082;-65
2022/05/17 11:56:21;;;;;;;8.50;2.88;;;;;;;;;;4966280;28;20109;-66
2022/05/17 11:58:50;;;;;;;7.32;2.00;;;;;;;;;;4986948;28;20136;-65
2022/05/17 12:01:32;;;;;;;6.95;2.83;;;;;;;;;;4983705;28;20046;-65
2022/05/17 12:04:00;;;;;;;6.53;2.65;;;;;;;;;;4975796;28;20047;-66
2022/05/17 12:06:32;;;;;;;9.98;3.00;;;;;;;;;;4988611;28;20054;-67
2022/05/17 12:08:59;;;;;;;6.30;2.10;;;;;;;;;;4964673;28;20130;-67
2022/05/17 12:11:32;;;;;;;8.43;2.95;;;;;;;;;;4970087;28;20059;-65
2022/05/17 12:14:08;;;;;;;9.20;2.72;;;;;;;;;;4966334;28;20051;-63
2022/05/17 12:16:35;;;;;;;9.95;3.08;;;;;;;;;;4988582;28;20117;-64
2022/05/17 12:19:06;;;;;;;9.53;3.00;;;;;;;;;;4982384;28;20050;-65
2022/05/17 12:21:44;;;;;;;7.43;2.35;;;;;;;;;;4989118;28;20054;-63
2022/05/17 12:24:22;;;;;;;6.13;2.20;;;;;;;;;;4982417;28;20047;-66
2022/05/17 12:27:06;;;;;;;8.15;2.65;;;;;;;;;;4988915;28;20081;-65
2022/05/17 12:32:24;;;;;;;5.95;2.20;;;;;;;;;;4987945;28;20054;-67
2022/05/17 12:34:53;;;;;;;7.88;2.58;;;;;;;;;;4982884;28;20046;-65
2022/05/17 12:37:25;;;;;;;12.07;3.30;;;;;;;;;;4986676;28;20062;-64
2022/05/17 12:45:23;;;;;;;12.73;3.58;;;;;;;;;;4981994;28;20066;-65
2022/05/17 12:47:52;;;;;;;6.70;3.00;;;;;;;;;;4988196;28;20105;-65
2022/05/17 12:50:21;;;;;;;16.45;4.22;;;;;;;;;;4981896;28;20100;-62
2022/05/17 12:52:52;;;;;;;14.48;2.65;;;;;;;;;;4988054;28;20057;-67
2022/05/17 12:55:20;;;;;;;8.40;3.17;;;;;;;;;;4993422;28;20047;-66
2022/05/17 12:57:47;;;;;;;;;;;;;;;;;;4985354;28;20054;-62
2022/05/17 13:00:15;;;;;;;6.57;2.22;;;;;;;;;;4950635;28;19927;-67
2022/05/17 13:02:44;;;;;;;8.23;2.70;;;;;;;;;;4987615;28;20058;-64
2022/05/17 13:05:24;;;;;;;7.60;2.60;;;;;;;;;;4982552;28;20104;-67
2022/05/17 13:07:59;;;;;;;7.82;2.95;;;;;;;;;;4987476;28;20058;-68
2022/05/17 13:10:26;;;;;;;13.10;3.10;;;;;;;;;;4981830;28;20093;-67
2022/05/17 13:12:52;;;;;;;15.05;3.20;;;;;;;;;;4984562;28;20051;-66
2022/05/17 13:15:19;;;;;;;8.38;2.53;;;;;;;;;;4983880;28;20152;-63
2022/05/17 13:17:51;;;;;;;7.50;2.10;;;;;;;;;;4984673;28;20065;-68
2022/05/17 13:20:21;;;;;;;6.90;1.90;;;;;;;;;;4986749;28;20082;-62
2022/05/17 13:22:53;;;;;;;4.93;2.20;;;;;;;;;;4982390;28;20055;-65
2022/05/17 13:25:21;;;;;;;5.03;1.88;;;;;;;;;;4987293;28;20053;-66
2022/05/17 13:27:49;;;;;;;6.25;1.73;;;;;;;;;;4981084;28;20168;-65
2022/05/17 13:30:26;;;;;;;7.70;1.88;;;;;;;;;;4987103;28;20058;-65
2022/05/17 13:32:54;;;;;;;11.45;2.08;;;;;;;;;;4954917;28;20162;-64
2022/05/17 13:35:23;;;;;;;5.95;1.77;;;;;;;;;;4983061;28;20057;-63
2022/05/17 13:37:54;;;;;;;4.82;1.50;;;;;;;;;;4981428;28;20153;-62
2022/05/17 13:40:34;;;;;;;4.63;1.40;;;;;;;;;;4987448;28;20039;-65
2022/05/17 13:43:00;;;;;;;6.88;1.50;;;;;;;;;;4971272;28;20134;-65
2022/05/17 13:45:31;;;;;;;5.07;1.40;;;;;;;;;;4968238;28;20060;-63
2022/05/17 13:48:00;;;;;;;5.32;1.55;;;;;;;;;;4959065;28;20145;-63
2022/05/17 13:50:28;;;;;;;5.07;1.63;;;;;;;;;;5003340;28;20069;-65
2022/05/17 13:52:56;;;;;;;5.82;1.65;;;;;;;;;;4996635;28;20046;-66
2022/05/17 13:55:26;;;;;;;6.60;1.65;;;;;;;;;;4986894;28;20085;-68
2022/05/17 13:57:55;;;;;;;2.92;1.38;;;;;;;;;;4965262;28;20050;-67
2022/05/17 14:00:23;;;;;;;6.03;1.40;;;;;;;;;;4987554;28;20126;-64
2022/05/17 14:02:57;;;;;;;5.40;1.40;;;;;;;;;;4981648;28;20121;-67
2022/05/17 14:05:27;;;;;;;3.13;1.20;;;;;;;;;;4986896;28;20077;-65
2022/05/17 14:07:55;;;;;;;6.82;1.60;;;;;;;;;;4976880;28;20050;-64
2022/05/17 14:13:09;;;;;;;6.70;2.10;;;;;;;;;;4981005;28;20093;-61
2022/05/17 14:15:36;;;;;;;;;;;;;;;;;;4987663;28;20053;-61
2022/05/17 14:18:04;;;;;;;6.00;1.80;;;;;;;;;;4981082;28;20017;-63
2022/05/17 14:20:32;;;;;;;4.60;1.40;;;;;;;;;;4987150;28;20058;-62
2022/05/17 14:23:00;;;;;;;;;;;;;;;;;;4981489;28;20138;-65
2022/05/17 14:25:27;;;;;;;4.05;1.35;;;;;;;;;;4993764;28;19929;-64
2022/05/17 14:27:55;;;;;;;4.38;1.50;;;;;;;;;;5002922;28;20058;-67
2022/05/17 14:30:22;;;;;;;;;;;;;;;;;;4980599;28;20050;-65
2022/05/17 14:32:48;;;;;;;5.13;1.98;;;;;;;;;;5003536;28;20020;-66
2022/05/17 14:35:15;;;;;;;3.78;1.10;;;;;;;;;;4960477;28;20143;-66
2022/05/17 14:37:43;;;;;;;6.10;1.67;;;;;;;;;;4986771;28;20081;-67
2022/05/17 14:40:11;;;;;;;10.80;2.10;;;;;;;;;;4981512;28;20082;-67
2022/05/17 14:42:37;;;;;;;5.13;1.48;;;;;;;;;;4986623;28;20050;-68
2022/05/17 14:45:06;;;;;;;7.15;2.08;;;;;;;;;;4985456;28;20074;-68
2022/05/17 14:47:32;;;;;;;4.50;1.50;;;;;;;;;;4988085;28;20061;-67
2022/05/17 14:50:00;;;;;;;4.35;1.42;;;;;;;;;;4984201;28;20062;-68
2022/05/17 14:52:28;;;;;;;4.32;1.50;;;;;;;;;;4990614;28;20054;-68
2022/05/17 14:54:55;;;;;;;;;;;;;;;;;;4985189;28;20121;-69
2022/05/17 14:57:23;;;;;;;6.95;1.23;;;;;;;;;;4989917;28;20128;-68
2022/05/17 14:59:49;;;;;;;6.78;1.92;;;;;;;;;;4979937;28;20098;-68
2022/05/17 15:02:16;;;;;;;5.10;1.27;;;;;;;;;;4986078;28;20074;-68
2022/05/17 15:04:43;;;;;;;5.70;1.83;;;;;;;;;;4968118;28;20108;-66
2022/05/17 15:07:13;;;;;;;7.13;1.43;;;;;;;;;;4988203;28;20145;-68
2022/05/17 15:09:39;;;;;;;4.22;1.45;;;;;;;;;;4973694;28;20074;-67
2022/05/17 15:12:06;;;;;;;6.00;1.40;;;;;;;;;;4968070;28;20058;-66
2022/05/17 15:14:34;;;;;;;3.60;1.17;;;;;;;;;;4973738;28;20039;-63
2022/05/17 15:17:01;;;;;;;;;;;;;;;;;;4981498;28;20050;-66
2022/05/17 15:19:30;;;;;;;9.45;1.73;;;;;;;;;;5005873;28;19933;-66
2022/05/17 15:21:56;;;;;;;6.53;1.35;;;;;;;;;;4984232;28;20058;-66
2022/05/17 15:24:23;;;;;;;6.82;1.80;;;;;;;;;;4990130;28;20039;-68